createdAt,value
2022-11-30T00:01:15.432Z,6.70
2022-11-30T00:03:42.709Z,6.70
2022-11-30T00:06:11.822Z,6.70
2022-11-30T00:08:38.784Z,6.60
2022-11-30T00:11:14.794Z,6.70
2022-11-30T00:13:42.163Z,6.70
2022-11-30T00:16:09.629Z,6.60
2022-11-30T00:18:37.178Z,6.60
2022-11-30T00:21:06.605Z,6.60
2022-11-30T00:23:38.244Z,6.70
2022-11-30T00:26:11.324Z,6.60
2022-11-30T00:28:38.656Z,6.60
2022-11-30T00:31:08.642Z,6.60
2022-11-30T00:33:36.893Z,6.60
2022-11-30T00:36:10.645Z,6.60
2022-11-30T00:38:37.415Z,6.60
2022-11-30T00:41:04.659Z,6.60
2022-11-30T00:43:31.700Z,6.60
2022-11-30T00:45:58.922Z,6.60
2022-11-30T00:48:26.075Z,6.60
2022-11-30T00:50:53.342Z,6.60
2022-11-30T00:53:20.911Z,6.70
2022-11-30T00:55:49.421Z,6.70
2022-11-30T00:58:17.216Z,6.70
2022-11-30T01:00:44.399Z,6.70
2022-11-30T01:03:12.258Z,6.60
2022-11-30T01:05:39.637Z,6.60
2022-11-30T01:08:09.707Z,6.70
2022-11-30T01:10:39.174Z,6.70
2022-11-30T01:13:07.160Z,6.70
2022-11-30T01:15:39.203Z,6.60
2022-11-30T01:18:07.130Z,6.60
2022-11-30T01:20:34.074Z,6.60
2022-11-30T01:23:01.439Z,6.70
2022-11-30T01:25:28.385Z,6.70
2022-11-30T01:27:55.327Z,6.70
2022-11-30T01:30:22.203Z,6.60
2022-11-30T01:32:49.157Z,6.70
2022-11-30T01:35:16.298Z,6.70
2022-11-30T01:37:43.650Z,6.60
2022-11-30T01:40:11.944Z,6.70
2022-11-30T01:42:45.160Z,6.60
2022-11-30T01:45:13.039Z,6.60
2022-11-30T01:47:45.578Z,6.60
2022-11-30T01:50:35.952Z,6.60
2022-11-30T01:53:05.399Z,6.60
2022-11-30T01:55:40.055Z,6.60
2022-11-30T01:58:11.587Z,6.60
2022-11-30T02:00:44.178Z,6.70
2022-11-30T02:03:26.434Z,6.70
2022-11-30T02:05:53.683Z,6.60
2022-11-30T02:08:21.165Z,6.60
2022-11-30T02:10:54.098Z,6.60
2022-11-30T02:13:58.558Z,6.60
2022-11-30T02:17:06.620Z,6.60
2022-11-30T02:19:47.655Z,6.60
2022-11-30T02:22:47.622Z,6.60
2022-11-30T02:25:35.564Z,6.50
2022-11-30T02:28:34.512Z,6.50
2022-11-30T02:31:04.582Z,6.50
2022-11-30T02:33:34.156Z,6.50
2022-11-30T02:36:03.359Z,6.50
2022-11-30T02:38:31.104Z,6.50
2022-11-30T02:40:58.104Z,6.50
2022-11-30T02:43:28.178Z,6.50
2022-11-30T02:46:04.124Z,6.50
2022-11-30T02:48:49.569Z,6.50
2022-11-30T02:51:21.606Z,6.50
2022-11-30T02:53:49.150Z,6.50
2022-11-30T02:56:18.668Z,6.50
2022-11-30T02:58:45.983Z,6.50
2022-11-30T03:01:13.257Z,6.50
2022-11-30T03:03:40.683Z,6.50
2022-11-30T03:06:07.894Z,6.40
2022-11-30T03:08:34.883Z,6.40
2022-11-30T03:11:03.757Z,6.40
2022-11-30T03:13:32.597Z,6.40
2022-11-30T03:16:06.509Z,6.40
2022-11-30T03:18:33.783Z,6.40
2022-11-30T03:21:00.702Z,6.40
2022-11-30T03:23:27.568Z,6.40
2022-11-30T03:25:59.321Z,6.40
2022-11-30T03:28:26.452Z,6.50
2022-11-30T03:30:53.807Z,6.40
2022-11-30T03:33:28.218Z,6.50
2022-11-30T03:36:09.989Z,6.50
2022-11-30T03:38:37.375Z,6.50
2022-11-30T03:41:10.861Z,6.50
2022-11-30T03:43:37.690Z,6.50
2022-11-30T03:46:04.714Z,6.50
2022-11-30T03:48:31.654Z,6.50
2022-11-30T03:51:01.852Z,6.50
2022-11-30T03:53:32.258Z,6.50
2022-11-30T03:56:02.470Z,6.50
2022-11-30T03:58:29.654Z,6.50
2022-11-30T04:01:14.880Z,6.50
2022-11-30T04:03:43.337Z,6.50
2022-11-30T04:06:12.301Z,6.50
2022-11-30T04:08:39.710Z,6.50
2022-11-30T04:11:07.853Z,6.50
2022-11-30T04:13:36.704Z,6.50
2022-11-30T04:16:04.837Z,6.50
2022-11-30T04:18:33.326Z,6.50
2022-11-30T04:21:03.998Z,6.50
2022-11-30T04:23:36.405Z,6.50
2022-11-30T04:26:09.084Z,6.50
2022-11-30T04:28:36.138Z,6.50
2022-11-30T04:31:03.286Z,6.50
2022-11-30T04:33:30.694Z,6.50
2022-11-30T04:36:00.250Z,6.50
2022-11-30T04:38:27.826Z,6.50
2022-11-30T04:40:54.641Z,6.50
2022-11-30T04:43:21.873Z,6.50
2022-11-30T04:45:49.297Z,6.50
2022-11-30T04:48:17.771Z,6.50
2022-11-30T04:50:45.072Z,6.40
2022-11-30T04:53:12.365Z,6.50
2022-11-30T04:55:39.925Z,6.50
2022-11-30T04:58:07.365Z,6.50
2022-11-30T05:00:35.420Z,6.50
2022-11-30T05:03:05.489Z,6.50
2022-11-30T05:05:32.748Z,6.50
2022-11-30T05:08:01.759Z,6.50
2022-11-30T05:10:36.934Z,6.50
2022-11-30T05:13:03.848Z,6.50
2022-11-30T05:15:31.826Z,6.50
2022-11-30T05:18:00.078Z,6.50
2022-11-30T05:20:28.810Z,6.50
2022-11-30T05:22:55.806Z,6.50
2022-11-30T05:25:22.669Z,6.50
2022-11-30T05:27:49.545Z,6.50
2022-11-30T05:30:16.708Z,6.50
2022-11-30T05:32:43.673Z,6.50
2022-11-30T05:35:11.080Z,6.50
2022-11-30T05:37:38.230Z,6.50
2022-11-30T05:40:06.037Z,6.50
2022-11-30T05:42:33.089Z,6.50
2022-11-30T05:44:59.958Z,6.50
2022-11-30T05:47:26.893Z,6.50
2022-11-30T05:49:53.721Z,6.50
2022-11-30T05:52:20.549Z,6.50
2022-11-30T05:54:47.644Z,6.50
2022-11-30T05:57:14.752Z,6.50
2022-11-30T05:59:41.778Z,6.50
2022-11-30T06:02:08.923Z,6.50
2022-11-30T06:04:36.097Z,6.50
2022-11-30T06:07:04.541Z,6.50
2022-11-30T06:09:31.350Z,6.50
2022-11-30T06:11:58.222Z,6.50
2022-11-30T06:14:24.933Z,6.50
2022-11-30T06:16:51.705Z,6.50
2022-11-30T06:19:18.667Z,6.60
2022-11-30T06:21:45.402Z,6.50
2022-11-30T06:24:12.248Z,6.50
2022-11-30T06:26:39.747Z,6.50
2022-11-30T06:29:06.542Z,6.50
2022-11-30T06:31:33.305Z,6.50
2022-11-30T06:34:00.042Z,6.50
2022-11-30T06:36:32.712Z,6.50
2022-11-30T06:39:02.261Z,6.40
2022-11-30T06:41:29.051Z,6.50
2022-11-30T06:43:55.783Z,6.50
2022-11-30T06:46:22.635Z,6.50
2022-11-30T06:48:50.841Z,6.50
2022-11-30T06:51:18.358Z,6.50
2022-11-30T06:53:46.275Z,6.50
2022-11-30T06:56:13.100Z,6.50
2022-11-30T06:58:40.412Z,6.50
2022-11-30T07:01:09.574Z,6.50
2022-11-30T07:03:37.044Z,6.50
2022-11-30T07:06:09.251Z,6.50
2022-11-30T07:08:36.522Z,6.50
2022-11-30T07:11:03.626Z,6.50
2022-11-30T07:13:30.518Z,6.50
2022-11-30T07:15:57.690Z,6.50
2022-11-30T07:18:30.118Z,6.50
2022-11-30T07:21:00.723Z,6.50
2022-11-30T07:23:50.758Z,6.60
2022-11-30T07:26:22.157Z,6.50
2022-11-30T07:28:54.804Z,6.60
2022-11-30T07:31:24.909Z,6.60
2022-11-30T07:33:52.052Z,6.60
2022-11-30T07:36:21.126Z,6.60
2022-11-30T07:38:48.428Z,6.60
2022-11-30T07:41:15.475Z,6.70
2022-11-30T07:43:42.212Z,6.70
2022-11-30T07:46:12.718Z,6.70
2022-11-30T07:48:39.624Z,6.70
2022-11-30T07:51:10.159Z,6.70
2022-11-30T07:53:36.943Z,6.80
2022-11-30T07:56:05.534Z,6.80
2022-11-30T07:58:32.701Z,6.80
2022-11-30T08:01:14.551Z,6.80
2022-11-30T08:03:41.781Z,6.80
2022-11-30T08:06:14.230Z,6.80
2022-11-30T08:08:43.757Z,6.80
2022-11-30T08:11:14.140Z,6.80
2022-11-30T08:13:41.612Z,6.80
2022-11-30T08:16:10.804Z,6.80
2022-11-30T08:18:37.771Z,6.80
2022-11-30T08:21:06.733Z,6.80
2022-11-30T08:23:43.001Z,6.80
2022-11-30T08:26:12.655Z,6.80
2022-11-30T08:28:40.204Z,6.80
2022-11-30T08:31:13.669Z,6.80
2022-11-30T08:33:40.568Z,6.80
2022-11-30T08:36:15.994Z,6.80
2022-11-30T08:38:44.365Z,6.80
2022-11-30T08:41:13.301Z,6.80
2022-11-30T08:43:40.464Z,6.70
2022-11-30T08:46:34.603Z,6.80
2022-11-30T08:49:19.914Z,6.80
2022-11-30T08:52:15.836Z,6.80
2022-11-30T08:54:32.543Z,6.80
2022-11-30T08:56:59.322Z,6.80
2022-11-30T08:59:26.152Z,6.80
2022-11-30T09:01:53.127Z,6.80
2022-11-30T09:04:19.848Z,6.80
2022-11-30T09:06:46.632Z,6.90
2022-11-30T09:09:13.635Z,6.90
2022-11-30T09:11:40.440Z,7.00
2022-11-30T09:14:09.120Z,7.00
2022-11-30T09:16:35.950Z,7.00
2022-11-30T09:19:03.191Z,7.10
2022-11-30T09:21:30.437Z,7.10
2022-11-30T09:23:57.308Z,7.10
2022-11-30T09:26:25.692Z,7.10
2022-11-30T09:28:54.111Z,7.20
2022-11-30T09:31:23.758Z,7.20
2022-11-30T09:33:51.178Z,7.20
2022-11-30T09:36:20.457Z,7.30
2022-11-30T09:38:47.846Z,7.30
2022-11-30T09:41:26.739Z,7.30
2022-11-30T09:44:12.374Z,7.30
2022-11-30T09:47:05.580Z,7.30
2022-11-30T09:49:39.811Z,7.30
2022-11-30T09:52:13.525Z,7.30
2022-11-30T09:54:43.099Z,7.40
2022-11-30T09:57:34.625Z,7.40
2022-11-30T10:00:05.534Z,7.40
2022-11-30T10:02:39.863Z,7.40
2022-11-30T10:05:19.522Z,7.40
2022-11-30T10:08:04.343Z,7.40
2022-11-30T10:10:37.404Z,7.50
2022-11-30T10:13:16.960Z,7.50
2022-11-30T10:15:46.943Z,7.50
2022-11-30T10:18:19.556Z,7.50
2022-11-30T10:20:52.355Z,7.50
2022-11-30T10:23:40.045Z,7.50
2022-11-30T10:26:15.344Z,7.50
2022-11-30T10:28:53.491Z,7.50
2022-11-30T10:31:28.973Z,7.50
2022-11-30T10:33:58.510Z,7.50
2022-11-30T10:36:36.946Z,7.50
2022-11-30T10:39:14.442Z,7.50
2022-11-30T10:41:48.485Z,7.50
2022-11-30T10:44:18.016Z,7.60
2022-11-30T10:46:57.879Z,7.60
2022-11-30T10:49:27.963Z,7.60
2022-11-30T10:52:01.184Z,7.60
2022-11-30T10:54:30.654Z,7.60
2022-11-30T10:57:01.826Z,7.60
2022-11-30T10:59:34.768Z,7.60
2022-11-30T11:02:01.524Z,7.60
2022-11-30T11:04:28.456Z,7.60
2022-11-30T11:06:58.966Z,7.60
2022-11-30T11:09:48.868Z,7.60
2022-11-30T11:12:24.954Z,7.50
2022-11-30T11:15:22.300Z,7.50
2022-11-30T11:17:50.782Z,7.60
2022-11-30T11:20:33.798Z,7.60
2022-11-30T11:23:01.151Z,7.60
2022-11-30T11:25:33.627Z,7.60
2022-11-30T11:28:14.504Z,7.60
2022-11-30T11:30:41.569Z,7.60
2022-11-30T11:33:14.113Z,7.50
2022-11-30T11:35:46.351Z,7.50
2022-11-30T11:38:42.323Z,7.40
2022-11-30T11:41:21.442Z,7.40
2022-11-30T11:44:04.073Z,7.30
2022-11-30T11:46:33.219Z,7.30
2022-11-30T11:49:03.155Z,7.30
2022-11-30T11:51:40.191Z,7.20
2022-11-30T11:54:15.106Z,7.20
2022-11-30T11:56:42.175Z,7.20
2022-11-30T11:59:32.822Z,7.20
2022-11-30T12:02:03.255Z,7.20
2022-11-30T12:04:54.128Z,7.30
2022-11-30T12:07:49.333Z,7.30
2022-11-30T12:13:19.047Z,7.30
2022-11-30T12:16:16.938Z,7.30
2022-11-30T12:19:14.427Z,7.30
2022-11-30T12:22:08.865Z,7.30
2022-11-30T12:25:05.779Z,7.30
2022-11-30T12:27:54.066Z,7.30
2022-11-30T12:30:30.237Z,7.30
2022-11-30T12:33:21.278Z,7.20
2022-11-30T12:36:19.059Z,7.20
2022-11-30T12:39:15.625Z,7.20
2022-11-30T12:41:58.492Z,7.30
2022-11-30T12:44:46.982Z,7.30
2022-11-30T12:47:35.181Z,7.30
2022-11-30T12:50:21.279Z,7.40
2022-11-30T12:52:56.972Z,7.30
2022-11-30T12:55:48.481Z,7.30
2022-11-30T12:58:15.194Z,7.30
2022-11-30T13:00:48.068Z,7.30
2022-11-30T13:03:14.841Z,7.40
2022-11-30T13:05:50.241Z,7.30
2022-11-30T13:08:45.646Z,7.40
2022-11-30T13:11:42.620Z,7.40
2022-11-30T13:14:17.157Z,7.40
2022-11-30T13:16:46.256Z,7.40
2022-11-30T13:19:41.166Z,7.30
2022-11-30T13:22:17.370Z,7.30
2022-11-30T13:24:50.972Z,7.30
2022-11-30T13:27:39.088Z,7.30
2022-11-30T13:30:25.676Z,7.30
2022-11-30T13:32:59.559Z,7.20
2022-11-30T13:35:29.231Z,7.20
2022-11-30T13:38:36.674Z,7.20
2022-11-30T13:41:07.219Z,7.20
2022-11-30T13:43:48.381Z,7.20
2022-11-30T13:46:20.914Z,7.20
2022-11-30T13:48:48.509Z,7.20
2022-11-30T13:51:37.145Z,7.20
2022-11-30T13:54:41.435Z,7.10
2022-11-30T13:57:18.638Z,7.10
2022-11-30T13:59:48.012Z,7.10
2022-11-30T14:02:33.761Z,7.10
2022-11-30T14:05:32.558Z,7.10
2022-11-30T14:07:59.320Z,7.10
2022-11-30T14:10:33.831Z,7.10
2022-11-30T14:13:03.470Z,7.00
2022-11-30T14:15:39.367Z,7.00
2022-11-30T14:18:08.874Z,7.00
2022-11-30T14:20:53.649Z,7.00
2022-11-30T14:23:53.240Z,7.00
2022-11-30T14:26:28.477Z,7.00
2022-11-30T14:29:07.356Z,6.90
2022-11-30T14:31:40.553Z,7.00
2022-11-30T14:34:17.655Z,6.90
2022-11-30T14:36:48.657Z,6.90
2022-11-30T14:39:36.969Z,6.90
2022-11-30T14:42:05.687Z,6.90
2022-11-30T14:44:39.360Z,6.90
2022-11-30T14:47:14.245Z,6.80
2022-11-30T14:49:51.809Z,6.90
2022-11-30T14:52:43.792Z,6.90
2022-11-30T14:55:32.329Z,6.80
2022-11-30T14:58:10.262Z,6.80
2022-11-30T15:00:40.121Z,6.80
2022-11-30T15:03:27.263Z,6.80
2022-11-30T15:06:00.039Z,6.80
2022-11-30T15:08:38.871Z,6.80
2022-11-30T15:11:11.887Z,6.80
2022-11-30T15:13:40.915Z,6.80
2022-11-30T15:16:49.864Z,6.80
2022-11-30T15:19:31.612Z,6.80
2022-11-30T15:21:59.247Z,6.80
2022-11-30T15:24:28.186Z,6.80
2022-11-30T15:27:15.094Z,6.80
2022-11-30T15:30:08.733Z,6.80
2022-11-30T15:32:35.536Z,6.80
2022-11-30T15:35:02.358Z,6.80
2022-11-30T15:37:40.976Z,6.70
2022-11-30T15:40:10.789Z,6.70
2022-11-30T15:42:43.742Z,6.70
2022-11-30T15:45:22.717Z,6.70
2022-11-30T15:47:50.377Z,6.70
2022-11-30T15:50:38.136Z,6.80
2022-11-30T15:53:25.766Z,6.70
2022-11-30T15:55:55.455Z,6.80
2022-11-30T15:58:32.598Z,6.70
2022-11-30T16:01:13.372Z,6.70
2022-11-30T16:03:55.531Z,6.70
2022-11-30T16:06:25.069Z,6.70
2022-11-30T16:08:52.788Z,6.70
2022-11-30T16:11:19.702Z,6.70
2022-11-30T16:13:47.402Z,6.80
2022-11-30T16:16:19.873Z,6.80
2022-11-30T16:18:47.292Z,6.70
2022-11-30T16:21:18.470Z,6.80
2022-11-30T16:23:46.278Z,6.70
2022-11-30T16:26:36.103Z,6.80
2022-11-30T16:29:04.185Z,6.80
2022-11-30T16:31:31.012Z,6.80
2022-11-30T16:33:58.211Z,6.80
2022-11-30T16:36:24.997Z,6.80
2022-11-30T16:38:53.258Z,6.80
2022-11-30T16:41:21.294Z,6.80
2022-11-30T16:43:50.083Z,6.80
2022-11-30T16:46:25.164Z,6.80
2022-11-30T16:48:52.932Z,6.80
2022-11-30T16:51:22.911Z,6.80
2022-11-30T16:53:49.739Z,6.70
2022-11-30T16:56:16.985Z,6.70
2022-11-30T16:58:44.397Z,6.70
2022-11-30T17:01:42.601Z,6.70
2022-11-30T17:04:14.969Z,6.70
2022-11-30T17:06:41.768Z,6.70
2022-11-30T17:09:13.244Z,6.60
2022-11-30T17:11:41.030Z,6.60
2022-11-30T17:14:08.042Z,6.60
2022-11-30T17:16:34.874Z,6.60
2022-11-30T17:19:01.768Z,6.60
2022-11-30T17:21:34.562Z,6.60
2022-11-30T17:24:01.581Z,6.50
2022-11-30T17:26:28.929Z,6.60
2022-11-30T17:28:55.852Z,6.50
2022-11-30T17:31:22.780Z,6.50
2022-11-30T17:33:49.712Z,6.50
2022-11-30T17:36:18.815Z,6.50
2022-11-30T17:38:45.652Z,6.50
2022-11-30T17:41:18.850Z,6.50
2022-11-30T17:43:46.638Z,6.50
2022-11-30T17:46:18.460Z,6.50
2022-11-30T17:48:45.961Z,6.50
2022-11-30T17:51:13.151Z,6.50
2022-11-30T17:53:41.471Z,6.50
2022-11-30T17:56:09.447Z,6.50
2022-11-30T17:58:43.685Z,6.50
2022-11-30T18:01:20.190Z,6.50
2022-11-30T18:03:47.794Z,6.50
2022-11-30T18:06:15.107Z,6.50
2022-11-30T18:08:42.064Z,6.50
2022-11-30T18:11:17.186Z,6.50
2022-11-30T18:13:44.071Z,6.50
2022-11-30T18:16:31.745Z,6.50
2022-11-30T18:18:59.550Z,6.50
2022-11-30T18:21:29.652Z,6.50
2022-11-30T18:23:57.768Z,6.40
2022-11-30T18:26:25.713Z,6.40
2022-11-30T18:28:54.123Z,6.40
2022-11-30T18:31:21.619Z,6.40
2022-11-30T18:33:48.710Z,6.50
2022-11-30T18:36:15.511Z,6.50
2022-11-30T18:38:42.306Z,6.50
2022-11-30T18:41:09.492Z,6.50
2022-11-30T18:43:38.250Z,6.50
2022-11-30T18:46:10.422Z,6.50
2022-11-30T18:48:38.541Z,6.50
2022-11-30T18:51:11.241Z,6.50
2022-11-30T18:53:37.979Z,6.50
2022-11-30T18:56:17.516Z,6.50
2022-11-30T18:58:44.539Z,6.50
2022-11-30T19:01:20.008Z,6.40
2022-11-30T19:04:00.999Z,6.40
2022-11-30T19:06:29.769Z,6.40
2022-11-30T19:08:57.101Z,6.40
2022-11-30T19:11:24.360Z,6.40
2022-11-30T19:13:55.641Z,6.30
2022-11-30T19:16:24.448Z,6.30
2022-11-30T19:18:52.037Z,6.30
2022-11-30T19:21:20.494Z,6.30
2022-11-30T19:23:49.018Z,6.30
2022-11-30T19:26:16.193Z,6.30
2022-11-30T19:28:44.325Z,6.30
2022-11-30T19:31:13.654Z,6.20
2022-11-30T19:33:42.243Z,6.20
2022-11-30T19:36:13.082Z,6.20
2022-11-30T19:38:40.123Z,6.20
2022-11-30T19:41:11.116Z,6.10
2022-11-30T19:43:38.479Z,6.20
2022-11-30T19:46:16.816Z,6.10
2022-11-30T19:48:44.501Z,6.10
2022-11-30T19:51:17.993Z,6.10
2022-11-30T19:53:45.958Z,6.10
2022-11-30T19:56:17.668Z,6.10
2022-11-30T19:58:46.420Z,6.20
2022-11-30T20:01:14.537Z,6.10
2022-11-30T20:03:41.352Z,6.10
2022-11-30T20:06:08.160Z,6.10
2022-11-30T20:08:36.836Z,6.10
2022-11-30T20:11:10.003Z,6.00
2022-11-30T20:13:37.312Z,6.00
2022-11-30T20:16:10.113Z,6.00
2022-11-30T20:18:40.073Z,6.00
2022-11-30T20:21:21.350Z,6.00
2022-11-30T20:23:49.419Z,6.00
2022-11-30T20:26:23.821Z,5.90
2022-11-30T20:28:51.945Z,6.00
2022-11-30T20:31:20.728Z,6.00
2022-11-30T20:33:48.170Z,5.90
2022-11-30T20:36:15.805Z,5.90
2022-11-30T20:38:43.686Z,5.90
2022-11-30T20:41:16.337Z,5.90
2022-11-30T20:43:43.854Z,5.90
2022-11-30T20:46:16.730Z,5.90
2022-11-30T20:48:43.539Z,5.80
2022-11-30T20:51:47.070Z,5.80
2022-11-30T20:57:08.677Z,5.80
2022-11-30T21:00:07.632Z,5.80
2022-11-30T21:03:04.057Z,5.80
2022-11-30T21:06:07.286Z,5.80
2022-11-30T21:11:28.611Z,5.80
2022-11-30T21:13:56.416Z,5.70
2022-11-30T21:16:32.702Z,5.70
2022-11-30T21:19:15.063Z,5.70
2022-11-30T21:22:34.522Z,5.60
2022-11-30T21:25:01.440Z,5.60
2022-11-30T21:27:34.549Z,5.60
2022-11-30T21:30:38.816Z,5.60
2022-11-30T21:33:21.046Z,5.50
2022-11-30T21:43:48.674Z,5.40
2022-11-30T21:45:07.452Z,5.40
2022-11-30T21:47:45.956Z,5.30
2022-11-30T21:51:30.466Z,5.30
2022-11-30T21:54:12.550Z,5.30
2022-11-30T21:57:08.862Z,5.20
2022-11-30T22:02:35.437Z,5.10
2022-11-30T22:05:16.881Z,5.00
2022-11-30T22:07:58.714Z,5.00
2022-11-30T22:10:55.245Z,5.00
2022-11-30T22:17:03.044Z,4.90
2022-11-30T22:19:57.173Z,4.90
2022-11-30T22:22:45.729Z,4.80
2022-11-30T22:30:00.028Z,4.80
2022-11-30T22:43:08.200Z,4.90
2022-11-30T22:45:35.404Z,4.90
2022-11-30T22:48:16.405Z,4.80
2022-11-30T22:50:43.310Z,4.90
2022-11-30T22:53:10.083Z,4.80
2022-11-30T22:55:40.756Z,4.80
2022-11-30T22:58:09.379Z,4.80
2022-11-30T23:00:36.097Z,4.70
2022-11-30T23:03:02.981Z,4.70
2022-11-30T23:05:29.754Z,4.70
2022-11-30T23:07:56.917Z,4.70
2022-11-30T23:10:23.706Z,4.70
2022-11-30T23:12:59.626Z,4.70
2022-11-30T23:15:26.779Z,4.70
2022-11-30T23:17:53.825Z,4.70
2022-11-30T23:20:22.409Z,4.70
2022-11-30T23:22:49.189Z,4.60
2022-11-30T23:25:16.854Z,4.60
2022-11-30T23:27:43.641Z,4.60
2022-11-30T23:30:10.589Z,4.60
2022-11-30T23:32:44.386Z,4.60
2022-11-30T23:35:11.474Z,4.60
2022-11-30T23:37:38.276Z,4.60
2022-11-30T23:40:05.797Z,4.60
2022-11-30T23:42:32.572Z,4.60
2022-11-30T23:45:01.015Z,4.60
2022-11-30T23:47:28.002Z,4.50
2022-11-30T23:49:54.722Z,4.50
2022-11-30T23:52:21.520Z,4.50
2022-11-30T23:54:48.285Z,4.50
2022-11-30T23:57:15.045Z,4.50
2022-11-30T23:59:41.773Z,4.50
